Terminal Aerodrome Forecast
Issued by NWS Sioux Falls, SD

Home | Current Version | Previous Version | Graphics & Text | Print | Product List | Glossary On
Versions: 1 2 3 4 5 6 7 8 9 10 11 12 13 14 15 16
000
FTUS43 KFSD 082120 AAA
TAFFSD
TAF AMD
KFSD 082120Z 0821/0918 29014KT P6SM BKN015
     FM090000 30012KT P6SM BKN150
     FM090300 33015G23KT P6SM SCT020 BKN150
     FM090400 33014G22KT P6SM BKN020
     FM090900 34013KT P6SM BKN030
     FM091400 34010KT P6SM SCT025=

USA.gov is the U.S. government's official web portal to all federal, state and local government web resources and services.